sensor_id;sensor_type;location;lat;lon;timestamp;P1;durP1;ratioP1;P2;durP2;ratioP2
12348;SDS011;5974;42.710;27.258;2023-12-20T00:00:59;9.00;;;8.10;;
12348;SDS011;5974;42.710;27.258;2023-12-20T00:03:26;13.30;;;7.53;;
12348;SDS011;5974;42.710;27.258;2023-12-20T00:05:52;9.53;;;7.97;;
12348;SDS011;5974;42.710;27.258;2023-12-20T00:08:19;8.23;;;7.10;;
12348;SDS011;5974;42.710;27.258;2023-12-20T00:10:46;9.80;;;7.67;;
12348;SDS011;5974;42.710;27.258;2023-12-20T00:13:13;9.47;;;7.90;;
12348;SDS011;5974;42.710;27.258;2023-12-20T00:15:39;10.80;;;7.47;;
12348;SDS011;5974;42.710;27.258;2023-12-20T00:18:08;8.53;;;7.43;;
12348;SDS011;5974;42.710;27.258;2023-12-20T00:20:34;10.57;;;7.60;;
12348;SDS011;5974;42.710;27.258;2023-12-20T00:23:01;9.90;;;7.40;;
12348;SDS011;5974;42.710;27.258;2023-12-20T00:25:28;9.20;;;7.57;;
12348;SDS011;5974;42.710;27.258;2023-12-20T00:27:55;14.27;;;8.10;;
12348;SDS011;5974;42.710;27.258;2023-12-20T00:30:22;8.67;;;7.60;;
12348;SDS011;5974;42.710;27.258;2023-12-20T00:32:48;8.97;;;7.50;;
12348;SDS011;5974;42.710;27.258;2023-12-20T00:35:17;8.80;;;7.90;;
12348;SDS011;5974;42.710;27.258;2023-12-20T00:37:43;8.97;;;7.63;;
12348;SDS011;5974;42.710;27.258;2023-12-20T00:40:11;10.07;;;7.57;;
12348;SDS011;5974;42.710;27.258;2023-12-20T00:42:37;8.07;;;6.70;;
12348;SDS011;5974;42.710;27.258;2023-12-20T00:45:05;9.73;;;7.10;;
12348;SDS011;5974;42.710;27.258;2023-12-20T00:47:32;8.40;;;7.50;;
12348;SDS011;5974;42.710;27.258;2023-12-20T00:49:59;9.43;;;7.47;;
12348;SDS011;5974;42.710;27.258;2023-12-20T00:52:27;10.53;;;7.23;;
12348;SDS011;5974;42.710;27.258;2023-12-20T00:54:54;8.43;;;7.43;;
12348;SDS011;5974;42.710;27.258;2023-12-20T00:57:20;11.40;;;9.37;;
12348;SDS011;5974;42.710;27.258;2023-12-20T00:59:47;11.27;;;8.50;;
12348;SDS011;5974;42.710;27.258;2023-12-20T01:02:14;9.67;;;7.83;;
12348;SDS011;5974;42.710;27.258;2023-12-20T01:04:41;8.27;;;7.47;;
12348;SDS011;5974;42.710;27.258;2023-12-20T01:07:08;9.97;;;7.83;;
12348;SDS011;5974;42.710;27.258;2023-12-20T01:09:36;8.07;;;7.27;;
12348;SDS011;5974;42.710;27.258;2023-12-20T01:12:03;7.90;;;7.10;;
12348;SDS011;5974;42.710;27.258;2023-12-20T01:14:30;9.27;;;7.40;;
12348;SDS011;5974;42.710;27.258;2023-12-20T01:16:56;10.57;;;7.43;;
12348;SDS011;5974;42.710;27.258;2023-12-20T01:19:24;9.40;;;7.50;;
12348;SDS011;5974;42.710;27.258;2023-12-20T01:21:52;10.30;;;7.47;;
12348;SDS011;5974;42.710;27.258;2023-12-20T01:24:18;8.87;;;7.37;;
12348;SDS011;5974;42.710;27.258;2023-12-20T01:26:47;9.97;;;7.13;;
12348;SDS011;5974;42.710;27.258;2023-12-20T01:29:13;9.67;;;7.80;;
12348;SDS011;5974;42.710;27.258;2023-12-20T01:31:41;9.83;;;7.60;;
12348;SDS011;5974;42.710;27.258;2023-12-20T01:34:07;9.93;;;8.00;;
12348;SDS011;5974;42.710;27.258;2023-12-20T01:36:34;10.17;;;8.13;;
12348;SDS011;5974;42.710;27.258;2023-12-20T01:39:01;11.37;;;8.47;;
12348;SDS011;5974;42.710;27.258;2023-12-20T01:41:28;11.47;;;9.10;;
12348;SDS011;5974;42.710;27.258;2023-12-20T01:43:56;11.67;;;9.47;;
12348;SDS011;5974;42.710;27.258;2023-12-20T01:46:23;11.53;;;8.27;;
12348;SDS011;5974;42.710;27.258;2023-12-20T01:48:50;9.20;;;7.50;;
12348;SDS011;5974;42.710;27.258;2023-12-20T01:51:18;9.47;;;7.70;;
12348;SDS011;5974;42.710;27.258;2023-12-20T01:53:45;10.23;;;8.10;;
12348;SDS011;5974;42.710;27.258;2023-12-20T01:56:13;11.77;;;8.67;;
12348;SDS011;5974;42.710;27.258;2023-12-20T01:58:42;10.23;;;8.03;;
12348;SDS011;5974;42.710;27.258;2023-12-20T02:01:12;10.67;;;8.17;;
12348;SDS011;5974;42.710;27.258;2023-12-20T02:03:39;10.93;;;8.00;;
12348;SDS011;5974;42.710;27.258;2023-12-20T02:06:06;9.70;;;8.00;;
12348;SDS011;5974;42.710;27.258;2023-12-20T02:08:34;9.63;;;8.63;;
12348;SDS011;5974;42.710;27.258;2023-12-20T02:11:00;12.07;;;8.87;;
12348;SDS011;5974;42.710;27.258;2023-12-20T02:13:27;13.43;;;9.00;;
12348;SDS011;5974;42.710;27.258;2023-12-20T02:15:54;12.13;;;8.47;;
12348;SDS011;5974;42.710;27.258;2023-12-20T02:18:23;10.93;;;8.33;;
12348;SDS011;5974;42.710;27.258;2023-12-20T02:20:50;11.30;;;8.73;;
12348;SDS011;5974;42.710;27.258;2023-12-20T02:23:18;9.20;;;7.93;;
12348;SDS011;5974;42.710;27.258;2023-12-20T02:25:45;10.00;;;8.27;;
12348;SDS011;5974;42.710;27.258;2023-12-20T02:28:12;10.93;;;8.37;;
12348;SDS011;5974;42.710;27.258;2023-12-20T02:30:39;11.07;;;7.97;;
12348;SDS011;5974;42.710;27.258;2023-12-20T02:33:07;11.00;;;8.70;;
12348;SDS011;5974;42.710;27.258;2023-12-20T02:35:37;9.87;;;8.13;;
12348;SDS011;5974;42.710;27.258;2023-12-20T02:38:04;8.90;;;8.00;;
12348;SDS011;5974;42.710;27.258;2023-12-20T02:40:32;10.17;;;8.07;;
12348;SDS011;5974;42.710;27.258;2023-12-20T02:42:59;12.47;;;8.90;;
12348;SDS011;5974;42.710;27.258;2023-12-20T02:45:26;11.27;;;8.20;;
12348;SDS011;5974;42.710;27.258;2023-12-20T02:47:53;11.30;;;8.77;;
12348;SDS011;5974;42.710;27.258;2023-12-20T02:50:19;10.00;;;8.37;;
12348;SDS011;5974;42.710;27.258;2023-12-20T02:52:46;15.47;;;9.23;;
12348;SDS011;5974;42.710;27.258;2023-12-20T02:55:13;11.07;;;8.87;;
12348;SDS011;5974;42.710;27.258;2023-12-20T02:57:41;14.30;;;10.67;;
12348;SDS011;5974;42.710;27.258;2023-12-20T03:00:08;12.43;;;9.80;;
12348;SDS011;5974;42.710;27.258;2023-12-20T03:02:36;16.20;;;10.63;;
12348;SDS011;5974;42.710;27.258;2023-12-20T03:05:03;12.40;;;10.43;;
12348;SDS011;5974;42.710;27.258;2023-12-20T03:07:30;16.43;;;11.97;;
12348;SDS011;5974;42.710;27.258;2023-12-20T03:09:57;14.03;;;10.30;;
12348;SDS011;5974;42.710;27.258;2023-12-20T03:12:24;22.97;;;16.53;;
12348;SDS011;5974;42.710;27.258;2023-12-20T03:14:52;27.03;;;20.57;;
12348;SDS011;5974;42.710;27.258;2023-12-20T03:17:19;37.17;;;25.10;;
12348;SDS011;5974;42.710;27.258;2023-12-20T03:19:46;35.90;;;25.03;;
12348;SDS011;5974;42.710;27.258;2023-12-20T03:22:13;30.37;;;21.40;;
12348;SDS011;5974;42.710;27.258;2023-12-20T03:24:39;33.47;;;22.33;;
12348;SDS011;5974;42.710;27.258;2023-12-20T03:27:06;30.20;;;21.97;;
12348;SDS011;5974;42.710;27.258;2023-12-20T03:29:33;25.93;;;18.50;;
12348;SDS011;5974;42.710;27.258;2023-12-20T03:32:02;30.50;;;20.30;;
12348;SDS011;5974;42.710;27.258;2023-12-20T03:34:30;26.23;;;18.87;;
12348;SDS011;5974;42.710;27.258;2023-12-20T03:36:56;21.63;;;17.50;;
12348;SDS011;5974;42.710;27.258;2023-12-20T03:39:23;22.27;;;17.00;;
12348;SDS011;5974;42.710;27.258;2023-12-20T03:41:50;21.33;;;15.33;;
12348;SDS011;5974;42.710;27.258;2023-12-20T03:44:17;19.27;;;15.27;;
12348;SDS011;5974;42.710;27.258;2023-12-20T03:46:43;22.20;;;14.60;;
12348;SDS011;5974;42.710;27.258;2023-12-20T03:49:13;18.23;;;14.07;;
12348;SDS011;5974;42.710;27.258;2023-12-20T03:51:39;19.13;;;14.63;;
12348;SDS011;5974;42.710;27.258;2023-12-20T03:54:07;24.07;;;17.30;;
12348;SDS011;5974;42.710;27.258;2023-12-20T03:56:33;71.47;;;34.80;;
12348;SDS011;5974;42.710;27.258;2023-12-20T03:59:00;39.63;;;23.97;;
12348;SDS011;5974;42.710;27.258;2023-12-20T04:01:27;30.77;;;19.17;;
12348;SDS011;5974;42.710;27.258;2023-12-20T04:03:54;25.43;;;19.13;;
12348;SDS011;5974;42.710;27.258;2023-12-20T04:06:21;26.17;;;18.07;;
12348;SDS011;5974;42.710;27.258;2023-12-20T04:08:48;20.17;;;15.33;;
12348;SDS011;5974;42.710;27.258;2023-12-20T04:11:15;20.37;;;15.40;;
12348;SDS011;5974;42.710;27.258;2023-12-20T04:13:41;21.50;;;14.77;;
12348;SDS011;5974;42.710;27.258;2023-12-20T04:16:08;21.77;;;15.87;;
12348;SDS011;5974;42.710;27.258;2023-12-20T04:18:35;17.83;;;14.60;;
12348;SDS011;5974;42.710;27.258;2023-12-20T04:21:02;20.50;;;15.23;;
12348;SDS011;5974;42.710;27.258;2023-12-20T04:23:30;20.93;;;16.70;;
12348;SDS011;5974;42.710;27.258;2023-12-20T04:25:57;24.80;;;15.90;;
12348;SDS011;5974;42.710;27.258;2023-12-20T04:28:24;19.27;;;15.43;;
12348;SDS011;5974;42.710;27.258;2023-12-20T04:30:50;23.70;;;15.63;;
12348;SDS011;5974;42.710;27.258;2023-12-20T04:33:17;21.70;;;16.37;;
12348;SDS011;5974;42.710;27.258;2023-12-20T04:35:44;21.57;;;15.87;;
12348;SDS011;5974;42.710;27.258;2023-12-20T04:38:11;21.63;;;15.60;;
12348;SDS011;5974;42.710;27.258;2023-12-20T04:40:39;21.00;;;16.00;;
12348;SDS011;5974;42.710;27.258;2023-12-20T04:43:06;24.03;;;16.03;;
12348;SDS011;5974;42.710;27.258;2023-12-20T04:45:34;29.47;;;16.80;;
12348;SDS011;5974;42.710;27.258;2023-12-20T04:48:01;21.27;;;16.97;;
12348;SDS011;5974;42.710;27.258;2023-12-20T04:50:29;21.53;;;16.43;;
12348;SDS011;5974;42.710;27.258;2023-12-20T04:52:56;19.57;;;15.97;;
12348;SDS011;5974;42.710;27.258;2023-12-20T04:55:23;21.87;;;16.73;;
12348;SDS011;5974;42.710;27.258;2023-12-20T04:57:51;23.20;;;17.90;;
12348;SDS011;5974;42.710;27.258;2023-12-20T05:00:18;20.97;;;16.80;;
12348;SDS011;5974;42.710;27.258;2023-12-20T05:02:45;25.77;;;17.43;;
12348;SDS011;5974;42.710;27.258;2023-12-20T05:05:11;22.70;;;16.03;;
12348;SDS011;5974;42.710;27.258;2023-12-20T05:07:40;25.07;;;16.17;;
12348;SDS011;5974;42.710;27.258;2023-12-20T05:10:07;22.70;;;17.23;;
12348;SDS011;5974;42.710;27.258;2023-12-20T05:12:34;23.83;;;16.67;;
12348;SDS011;5974;42.710;27.258;2023-12-20T05:15:03;25.50;;;17.10;;
12348;SDS011;5974;42.710;27.258;2023-12-20T05:17:30;24.57;;;17.93;;
12348;SDS011;5974;42.710;27.258;2023-12-20T05:19:57;23.37;;;17.07;;
12348;SDS011;5974;42.710;27.258;2023-12-20T05:22:24;24.67;;;17.23;;
12348;SDS011;5974;42.710;27.258;2023-12-20T05:24:52;21.53;;;16.77;;
12348;SDS011;5974;42.710;27.258;2023-12-20T05:27:19;21.57;;;16.90;;
12348;SDS011;5974;42.710;27.258;2023-12-20T05:29:46;25.70;;;18.27;;
12348;SDS011;5974;42.710;27.258;2023-12-20T05:32:14;23.63;;;17.57;;
12348;SDS011;5974;42.710;27.258;2023-12-20T05:34:41;26.77;;;17.43;;
12348;SDS011;5974;42.710;27.258;2023-12-20T05:37:08;26.20;;;17.23;;
12348;SDS011;5974;42.710;27.258;2023-12-20T05:39:34;23.07;;;17.73;;
12348;SDS011;5974;42.710;27.258;2023-12-20T05:42:01;23.20;;;17.63;;
12348;SDS011;5974;42.710;27.258;2023-12-20T05:44:28;26.13;;;18.40;;
12348;SDS011;5974;42.710;27.258;2023-12-20T05:46:55;31.87;;;20.63;;
12348;SDS011;5974;42.710;27.258;2023-12-20T05:49:23;30.70;;;18.67;;
12348;SDS011;5974;42.710;27.258;2023-12-20T05:51:49;29.37;;;18.57;;
12348;SDS011;5974;42.710;27.258;2023-12-20T05:54:16;27.67;;;18.87;;
12348;SDS011;5974;42.710;27.258;2023-12-20T05:56:43;27.57;;;19.33;;
12348;SDS011;5974;42.710;27.258;2023-12-20T05:59:10;34.80;;;23.67;;
12348;SDS011;5974;42.710;27.258;2023-12-20T06:01:37;29.67;;;20.93;;
12348;SDS011;5974;42.710;27.258;2023-12-20T06:04:04;32.90;;;20.27;;
12348;SDS011;5974;42.710;27.258;2023-12-20T06:06:32;32.53;;;20.30;;
12348;SDS011;5974;42.710;27.258;2023-12-20T06:08:58;28.37;;;19.90;;
12348;SDS011;5974;42.710;27.258;2023-12-20T06:11:25;31.90;;;21.03;;
12348;SDS011;5974;42.710;27.258;2023-12-20T06:16:38;29.00;;;20.30;;
12348;SDS011;5974;42.710;27.258;2023-12-20T06:19:04;27.57;;;19.13;;
12348;SDS011;5974;42.710;27.258;2023-12-20T06:21:33;30.63;;;22.40;;
12348;SDS011;5974;42.710;27.258;2023-12-20T06:23:59;39.13;;;21.33;;
12348;SDS011;5974;42.710;27.258;2023-12-20T06:26:26;34.30;;;24.10;;
12348;SDS011;5974;42.710;27.258;2023-12-20T06:28:53;35.87;;;22.67;;
12348;SDS011;5974;42.710;27.258;2023-12-20T06:31:20;40.17;;;23.73;;
12348;SDS011;5974;42.710;27.258;2023-12-20T06:33:47;38.07;;;26.27;;
12348;SDS011;5974;42.710;27.258;2023-12-20T06:36:22;37.20;;;26.23;;
12348;SDS011;5974;42.710;27.258;2023-12-20T06:38:50;44.53;;;27.80;;
12348;SDS011;5974;42.710;27.258;2023-12-20T06:41:17;41.73;;;33.17;;
12348;SDS011;5974;42.710;27.258;2023-12-20T06:43:44;54.87;;;36.17;;
12348;SDS011;5974;42.710;27.258;2023-12-20T06:46:11;106.47;;;60.27;;
12348;SDS011;5974;42.710;27.258;2023-12-20T06:48:38;125.97;;;60.97;;
12348;SDS011;5974;42.710;27.258;2023-12-20T06:51:05;130.73;;;60.83;;
12348;SDS011;5974;42.710;27.258;2023-12-20T06:53:32;77.33;;;46.43;;
12348;SDS011;5974;42.710;27.258;2023-12-20T06:56:00;74.83;;;46.60;;
12348;SDS011;5974;42.710;27.258;2023-12-20T06:58:27;62.73;;;44.80;;
12348;SDS011;5974;42.710;27.258;2023-12-20T07:00:54;61.07;;;46.10;;
12348;SDS011;5974;42.710;27.258;2023-12-20T07:03:21;63.77;;;46.17;;
12348;SDS011;5974;42.710;27.258;2023-12-20T07:05:48;75.97;;;48.53;;
12348;SDS011;5974;42.710;27.258;2023-12-20T07:08:14;70.67;;;49.20;;
12348;SDS011;5974;42.710;27.258;2023-12-20T07:10:41;61.37;;;43.67;;
12348;SDS011;5974;42.710;27.258;2023-12-20T07:13:09;76.23;;;51.20;;
12348;SDS011;5974;42.710;27.258;2023-12-20T07:15:37;69.03;;;50.43;;
12348;SDS011;5974;42.710;27.258;2023-12-20T07:18:04;60.23;;;46.53;;
12348;SDS011;5974;42.710;27.258;2023-12-20T07:20:31;40.20;;;33.63;;
12348;SDS011;5974;42.710;27.258;2023-12-20T07:22:58;44.70;;;33.50;;
12348;SDS011;5974;42.710;27.258;2023-12-20T07:25:26;34.60;;;28.40;;
12348;SDS011;5974;42.710;27.258;2023-12-20T07:27:52;57.97;;;44.03;;
12348;SDS011;5974;42.710;27.258;2023-12-20T07:30:21;38.47;;;31.07;;
12348;SDS011;5974;42.710;27.258;2023-12-20T07:32:47;46.80;;;35.40;;
12348;SDS011;5974;42.710;27.258;2023-12-20T07:35:15;43.00;;;33.70;;
12348;SDS011;5974;42.710;27.258;2023-12-20T07:37:42;41.63;;;30.90;;
12348;SDS011;5974;42.710;27.258;2023-12-20T07:40:09;45.87;;;32.27;;
12348;SDS011;5974;42.710;27.258;2023-12-20T07:42:36;36.40;;;30.77;;
12348;SDS011;5974;42.710;27.258;2023-12-20T07:45:03;38.17;;;31.17;;
12348;SDS011;5974;42.710;27.258;2023-12-20T07:47:32;34.03;;;27.90;;
12348;SDS011;5974;42.710;27.258;2023-12-20T07:49:59;41.83;;;30.73;;
12348;SDS011;5974;42.710;27.258;2023-12-20T07:52:25;39.43;;;31.30;;
12348;SDS011;5974;42.710;27.258;2023-12-20T07:54:52;39.43;;;29.63;;
12348;SDS011;5974;42.710;27.258;2023-12-20T07:57:19;39.23;;;29.70;;
12348;SDS011;5974;42.710;27.258;2023-12-20T07:59:46;43.97;;;34.00;;
12348;SDS011;5974;42.710;27.258;2023-12-20T08:02:13;51.57;;;38.87;;
12348;SDS011;5974;42.710;27.258;2023-12-20T08:04:41;40.83;;;32.27;;
12348;SDS011;5974;42.710;27.258;2023-12-20T08:07:08;43.13;;;31.87;;
12348;SDS011;5974;42.710;27.258;2023-12-20T08:09:34;50.13;;;34.17;;
12348;SDS011;5974;42.710;27.258;2023-12-20T08:12:02;43.63;;;29.93;;
12348;SDS011;5974;42.710;27.258;2023-12-20T08:14:29;34.47;;;25.37;;
12348;SDS011;5974;42.710;27.258;2023-12-20T08:16:56;32.27;;;23.67;;
12348;SDS011;5974;42.710;27.258;2023-12-20T08:19:23;28.23;;;21.93;;
12348;SDS011;5974;42.710;27.258;2023-12-20T08:21:51;26.37;;;20.07;;
12348;SDS011;5974;42.710;27.258;2023-12-20T08:24:18;24.23;;;20.50;;
12348;SDS011;5974;42.710;27.258;2023-12-20T08:26:45;19.90;;;16.07;;
12348;SDS011;5974;42.710;27.258;2023-12-20T08:29:12;18.03;;;15.50;;
12348;SDS011;5974;42.710;27.258;2023-12-20T08:31:39;16.67;;;14.47;;
12348;SDS011;5974;42.710;27.258;2023-12-20T08:34:06;18.77;;;15.93;;
12348;SDS011;5974;42.710;27.258;2023-12-20T08:36:32;27.77;;;21.07;;
12348;SDS011;5974;42.710;27.258;2023-12-20T08:39:01;29.80;;;21.10;;
12348;SDS011;5974;42.710;27.258;2023-12-20T08:41:28;16.80;;;14.50;;
12348;SDS011;5974;42.710;27.258;2023-12-20T08:43:55;16.67;;;14.63;;
12348;SDS011;5974;42.710;27.258;2023-12-20T08:46:22;22.03;;;15.00;;
12348;SDS011;5974;42.710;27.258;2023-12-20T08:48:49;15.97;;;13.63;;
12348;SDS011;5974;42.710;27.258;2023-12-20T08:51:15;19.00;;;14.53;;
12348;SDS011;5974;42.710;27.258;2023-12-20T08:53:42;18.00;;;13.63;;
12348;SDS011;5974;42.710;27.258;2023-12-20T08:56:12;16.07;;;12.83;;
12348;SDS011;5974;42.710;27.258;2023-12-20T08:58:39;18.03;;;12.07;;
12348;SDS011;5974;42.710;27.258;2023-12-20T09:01:07;14.23;;;11.23;;
12348;SDS011;5974;42.710;27.258;2023-12-20T09:03:34;13.30;;;9.47;;
12348;SDS011;5974;42.710;27.258;2023-12-20T09:06:01;13.13;;;10.40;;
12348;SDS011;5974;42.710;27.258;2023-12-20T09:08:28;13.30;;;8.73;;
12348;SDS011;5974;42.710;27.258;2023-12-20T09:10:54;10.20;;;9.20;;
12348;SDS011;5974;42.710;27.258;2023-12-20T09:13:22;9.77;;;8.07;;
12348;SDS011;5974;42.710;27.258;2023-12-20T09:15:53;14.43;;;9.43;;
12348;SDS011;5974;42.710;27.258;2023-12-20T09:18:20;9.63;;;7.80;;
12348;SDS011;5974;42.710;27.258;2023-12-20T09:20:46;10.10;;;7.50;;
12348;SDS011;5974;42.710;27.258;2023-12-20T09:23:13;10.47;;;7.23;;
12348;SDS011;5974;42.710;27.258;2023-12-20T09:25:40;9.97;;;7.93;;
12348;SDS011;5974;42.710;27.258;2023-12-20T09:28:07;9.80;;;7.97;;
12348;SDS011;5974;42.710;27.258;2023-12-20T09:30:35;11.53;;;8.10;;
12348;SDS011;5974;42.710;27.258;2023-12-20T09:33:04;12.93;;;7.73;;
12348;SDS011;5974;42.710;27.258;2023-12-20T09:35:33;13.33;;;9.43;;
12348;SDS011;5974;42.710;27.258;2023-12-20T09:37:59;9.93;;;8.60;;
12348;SDS011;5974;42.710;27.258;2023-12-20T09:40:26;13.23;;;9.03;;
12348;SDS011;5974;42.710;27.258;2023-12-20T09:42:55;11.03;;;8.60;;
12348;SDS011;5974;42.710;27.258;2023-12-20T09:45:23;13.00;;;8.33;;
12348;SDS011;5974;42.710;27.258;2023-12-20T09:47:52;12.77;;;8.33;;
12348;SDS011;5974;42.710;27.258;2023-12-20T09:50:19;15.20;;;9.50;;
12348;SDS011;5974;42.710;27.258;2023-12-20T09:52:48;10.90;;;7.87;;
12348;SDS011;5974;42.710;27.258;2023-12-20T09:55:17;13.80;;;9.47;;
12348;SDS011;5974;42.710;27.258;2023-12-20T09:57:44;9.87;;;8.40;;
12348;SDS011;5974;42.710;27.258;2023-12-20T10:00:11;9.73;;;8.73;;
12348;SDS011;5974;42.710;27.258;2023-12-20T10:02:40;13.43;;;8.57;;
12348;SDS011;5974;42.710;27.258;2023-12-20T10:05:13;10.60;;;7.67;;
12348;SDS011;5974;42.710;27.258;2023-12-20T10:07:44;13.23;;;9.83;;
12348;SDS011;5974;42.710;27.258;2023-12-20T10:10:11;11.07;;;8.57;;
12348;SDS011;5974;42.710;27.258;2023-12-20T10:12:39;12.53;;;9.17;;
12348;SDS011;5974;42.710;27.258;2023-12-20T10:15:06;10.80;;;7.73;;
12348;SDS011;5974;42.710;27.258;2023-12-20T10:17:35;8.97;;;7.53;;
12348;SDS011;5974;42.710;27.258;2023-12-20T10:20:03;8.60;;;7.70;;
12348;SDS011;5974;42.710;27.258;2023-12-20T10:22:36;9.10;;;7.90;;
12348;SDS011;5974;42.710;27.258;2023-12-20T10:25:03;8.80;;;7.87;;
12348;SDS011;5974;42.710;27.258;2023-12-20T10:27:31;10.97;;;7.83;;
12348;SDS011;5974;42.710;27.258;2023-12-20T10:29:58;9.83;;;7.17;;
12348;SDS011;5974;42.710;27.258;2023-12-20T10:32:26;7.87;;;7.07;;
12348;SDS011;5974;42.710;27.258;2023-12-20T10:34:54;8.47;;;6.90;;
12348;SDS011;5974;42.710;27.258;2023-12-20T10:37:21;7.10;;;6.40;;
12348;SDS011;5974;42.710;27.258;2023-12-20T10:39:50;10.20;;;6.40;;
12348;SDS011;5974;42.710;27.258;2023-12-20T10:42:21;9.87;;;6.47;;
12348;SDS011;5974;42.710;27.258;2023-12-20T10:44:48;9.00;;;6.53;;
12348;SDS011;5974;42.710;27.258;2023-12-20T10:47:16;11.67;;;6.07;;
12348;SDS011;5974;42.710;27.258;2023-12-20T10:49:43;8.90;;;6.20;;
12348;SDS011;5974;42.710;27.258;2023-12-20T10:52:12;6.63;;;5.67;;
12348;SDS011;5974;42.710;27.258;2023-12-20T10:54:39;9.17;;;6.33;;
12348;SDS011;5974;42.710;27.258;2023-12-20T10:57:08;6.80;;;6.10;;
12348;SDS011;5974;42.710;27.258;2023-12-20T10:59:36;11.70;;;5.73;;
12348;SDS011;5974;42.710;27.258;2023-12-20T11:02:03;5.30;;;4.80;;
12348;SDS011;5974;42.710;27.258;2023-12-20T11:04:35;7.87;;;5.70;;
12348;SDS011;5974;42.710;27.258;2023-12-20T11:07:08;11.93;;;6.47;;
12348;SDS011;5974;42.710;27.258;2023-12-20T11:09:47;10.73;;;6.67;;
12348;SDS011;5974;42.710;27.258;2023-12-20T11:12:23;10.93;;;5.70;;
12348;SDS011;5974;42.710;27.258;2023-12-20T11:15:00;7.63;;;6.27;;
12348;SDS011;5974;42.710;27.258;2023-12-20T11:17:29;10.27;;;6.70;;
12348;SDS011;5974;42.710;27.258;2023-12-20T11:22:39;7.53;;;5.70;;
12348;SDS011;5974;42.710;27.258;2023-12-20T11:25:18;7.93;;;5.73;;
12348;SDS011;5974;42.710;27.258;2023-12-20T11:28:06;6.30;;;5.50;;
12348;SDS011;5974;42.710;27.258;2023-12-20T11:30:41;6.80;;;5.67;;
12348;SDS011;5974;42.710;27.258;2023-12-20T11:33:12;9.73;;;7.00;;
12348;SDS011;5974;42.710;27.258;2023-12-20T11:35:39;8.27;;;7.07;;
12348;SDS011;5974;42.710;27.258;2023-12-20T11:38:07;11.43;;;6.93;;
12348;SDS011;5974;42.710;27.258;2023-12-20T11:40:34;10.47;;;6.80;;
12348;SDS011;5974;42.710;27.258;2023-12-20T11:43:03;9.47;;;7.10;;
12348;SDS011;5974;42.710;27.258;2023-12-20T11:45:30;8.67;;;7.23;;
12348;SDS011;5974;42.710;27.258;2023-12-20T11:47:57;13.47;;;7.30;;
12348;SDS011;5974;42.710;27.258;2023-12-20T11:50:24;8.20;;;7.40;;
12348;SDS011;5974;42.710;27.258;2023-12-20T11:52:52;8.20;;;6.60;;
12348;SDS011;5974;42.710;27.258;2023-12-20T11:55:20;16.93;;;8.50;;
12348;SDS011;5974;42.710;27.258;2023-12-20T11:57:47;10.67;;;7.60;;
12348;SDS011;5974;42.710;27.258;2023-12-20T12:00:16;12.30;;;8.13;;
12348;SDS011;5974;42.710;27.258;2023-12-20T12:02:45;11.60;;;8.43;;
12348;SDS011;5974;42.710;27.258;2023-12-20T12:05:21;12.73;;;8.40;;
12348;SDS011;5974;42.710;27.258;2023-12-20T12:07:48;11.90;;;8.40;;
12348;SDS011;5974;42.710;27.258;2023-12-20T12:10:15;11.53;;;8.00;;
12348;SDS011;5974;42.710;27.258;2023-12-20T12:12:42;11.70;;;9.87;;
12348;SDS011;5974;42.710;27.258;2023-12-20T12:15:09;18.43;;;9.47;;
12348;SDS011;5974;42.710;27.258;2023-12-20T12:17:37;10.33;;;7.93;;
12348;SDS011;5974;42.710;27.258;2023-12-20T12:20:04;9.47;;;8.23;;
12348;SDS011;5974;42.710;27.258;2023-12-20T12:22:32;14.90;;;9.00;;
12348;SDS011;5974;42.710;27.258;2023-12-20T12:25:09;12.77;;;8.57;;
12348;SDS011;5974;42.710;27.258;2023-12-20T12:27:36;13.47;;;7.87;;
12348;SDS011;5974;42.710;27.258;2023-12-20T12:30:04;13.60;;;8.07;;
12348;SDS011;5974;42.710;27.258;2023-12-20T12:32:32;12.73;;;8.60;;
12348;SDS011;5974;42.710;27.258;2023-12-20T12:35:02;14.07;;;8.13;;
12348;SDS011;5974;42.710;27.258;2023-12-20T12:37:29;10.23;;;8.27;;
12348;SDS011;5974;42.710;27.258;2023-12-20T12:39:56;15.93;;;8.43;;
12348;SDS011;5974;42.710;27.258;2023-12-20T12:42:23;12.37;;;9.10;;
12348;SDS011;5974;42.710;27.258;2023-12-20T12:44:53;12.97;;;9.63;;
12348;SDS011;5974;42.710;27.258;2023-12-20T12:47:20;13.07;;;9.73;;
12348;SDS011;5974;42.710;27.258;2023-12-20T12:49:47;14.53;;;9.43;;
12348;SDS011;5974;42.710;27.258;2023-12-20T12:52:18;14.97;;;9.57;;
12348;SDS011;5974;42.710;27.258;2023-12-20T12:54:45;10.93;;;9.70;;
12348;SDS011;5974;42.710;27.258;2023-12-20T12:57:13;17.10;;;10.50;;
12348;SDS011;5974;42.710;27.258;2023-12-20T12:59:40;12.13;;;9.30;;
12348;SDS011;5974;42.710;27.258;2023-12-20T13:02:07;12.50;;;9.93;;
12348;SDS011;5974;42.710;27.258;2023-12-20T13:04:34;12.40;;;11.07;;
12348;SDS011;5974;42.710;27.258;2023-12-20T13:07:01;16.93;;;11.30;;
12348;SDS011;5974;42.710;27.258;2023-12-20T13:09:29;15.63;;;10.70;;
12348;SDS011;5974;42.710;27.258;2023-12-20T13:11:56;15.03;;;10.33;;
12348;SDS011;5974;42.710;27.258;2023-12-20T13:14:24;13.53;;;10.70;;
12348;SDS011;5974;42.710;27.258;2023-12-20T13:16:50;15.57;;;11.40;;
12348;SDS011;5974;42.710;27.258;2023-12-20T13:19:17;28.00;;;11.97;;
12348;SDS011;5974;42.710;27.258;2023-12-20T13:21:44;19.43;;;12.47;;
12348;SDS011;5974;42.710;27.258;2023-12-20T13:24:11;18.53;;;12.07;;
12348;SDS011;5974;42.710;27.258;2023-12-20T13:26:39;22.47;;;12.53;;
12348;SDS011;5974;42.710;27.258;2023-12-20T13:29:06;21.20;;;11.50;;
12348;SDS011;5974;42.710;27.258;2023-12-20T13:31:33;15.23;;;11.57;;
12348;SDS011;5974;42.710;27.258;2023-12-20T13:34:01;15.70;;;11.83;;
12348;SDS011;5974;42.710;27.258;2023-12-20T13:36:28;15.87;;;11.30;;
12348;SDS011;5974;42.710;27.258;2023-12-20T13:38:55;17.17;;;13.43;;
12348;SDS011;5974;42.710;27.258;2023-12-20T13:41:21;18.43;;;14.00;;
12348;SDS011;5974;42.710;27.258;2023-12-20T13:43:50;22.07;;;12.97;;
12348;SDS011;5974;42.710;27.258;2023-12-20T13:46:16;21.50;;;13.73;;
12348;SDS011;5974;42.710;27.258;2023-12-20T13:48:43;20.63;;;13.60;;
12348;SDS011;5974;42.710;27.258;2023-12-20T13:51:10;19.60;;;12.30;;
12348;SDS011;5974;42.710;27.258;2023-12-20T13:53:37;18.97;;;14.17;;
12348;SDS011;5974;42.710;27.258;2023-12-20T13:56:04;18.47;;;13.80;;
12348;SDS011;5974;42.710;27.258;2023-12-20T13:58:32;23.53;;;14.30;;
12348;SDS011;5974;42.710;27.258;2023-12-20T14:01:00;33.83;;;16.73;;
12348;SDS011;5974;42.710;27.258;2023-12-20T14:03:27;22.70;;;16.20;;
12348;SDS011;5974;42.710;27.258;2023-12-20T14:05:53;25.80;;;14.37;;
12348;SDS011;5974;42.710;27.258;2023-12-20T14:08:21;21.10;;;13.73;;
12348;SDS011;5974;42.710;27.258;2023-12-20T14:10:48;27.67;;;14.63;;
12348;SDS011;5974;42.710;27.258;2023-12-20T14:13:15;26.33;;;16.27;;
12348;SDS011;5974;42.710;27.258;2023-12-20T14:15:42;23.30;;;16.47;;
12348;SDS011;5974;42.710;27.258;2023-12-20T14:18:10;24.37;;;16.30;;
12348;SDS011;5974;42.710;27.258;2023-12-20T14:20:39;23.93;;;18.03;;
12348;SDS011;5974;42.710;27.258;2023-12-20T14:23:07;29.27;;;21.27;;
12348;SDS011;5974;42.710;27.258;2023-12-20T14:25:35;29.00;;;20.33;;
12348;SDS011;5974;42.710;27.258;2023-12-20T14:28:03;26.97;;;16.27;;
12348;SDS011;5974;42.710;27.258;2023-12-20T14:30:30;19.73;;;13.40;;
12348;SDS011;5974;42.710;27.258;2023-12-20T14:32:57;22.97;;;16.27;;
12348;SDS011;5974;42.710;27.258;2023-12-20T14:35:25;34.20;;;18.53;;
12348;SDS011;5974;42.710;27.258;2023-12-20T14:37:52;29.67;;;21.73;;